createdAt,value
2022-07-29T00:01:54.634Z,21.74
2022-07-29T00:04:22.242Z,21.73
2022-07-29T00:06:49.671Z,21.67
2022-07-29T00:09:16.788Z,21.62
2022-07-29T00:11:44.343Z,21.65
2022-07-29T00:14:11.740Z,21.62
2022-07-29T00:16:39.184Z,21.63
2022-07-29T00:19:07.847Z,21.57
2022-07-29T00:21:35.285Z,21.61
2022-07-29T00:24:02.609Z,21.62
2022-07-29T00:26:32.615Z,21.62
2022-07-29T00:31:52.616Z,21.56
2022-07-29T00:34:38.638Z,21.55
2022-07-29T00:37:05.973Z,21.50
2022-07-29T00:39:35.040Z,21.50
2022-07-29T00:42:05.605Z,21.47
2022-07-29T00:44:37.831Z,21.44
2022-07-29T00:47:05.094Z,21.42
2022-07-29T00:49:32.272Z,21.39
2022-07-29T00:52:01.504Z,21.38
2022-07-29T00:54:30.002Z,21.37
2022-07-29T00:57:00.134Z,21.35
2022-07-29T00:59:35.205Z,21.36
2022-07-29T01:02:04.397Z,21.33
2022-07-29T01:04:33.103Z,21.32
2022-07-29T01:07:03.158Z,21.32
2022-07-29T01:09:46.294Z,21.29
2022-07-29T01:12:18.466Z,21.34
2022-07-29T01:14:47.188Z,21.35
2022-07-29T01:17:28.382Z,21.37
2022-07-29T01:19:58.316Z,21.34
2022-07-29T01:22:52.275Z,21.32
2022-07-29T01:25:40.308Z,21.30
2022-07-29T01:28:32.152Z,21.23
2022-07-29T01:31:02.025Z,21.20
2022-07-29T01:33:50.893Z,21.17
2022-07-29T01:36:51.846Z,21.08
2022-07-29T01:39:34.278Z,21.03
2022-07-29T01:42:37.092Z,20.91
2022-07-29T01:45:22.981Z,20.88
2022-07-29T01:48:31.329Z,20.75
2022-07-29T01:51:07.200Z,20.72
2022-07-29T01:53:47.559Z,20.66
2022-07-29T01:56:18.374Z,20.61
2022-07-29T01:58:48.030Z,20.54
2022-07-29T02:01:17.289Z,20.48
2022-07-29T02:03:46.721Z,20.45
2022-07-29T02:06:17.989Z,20.38
2022-07-29T02:11:13.384Z,20.26
2022-07-29T02:13:42.204Z,20.24
2022-07-29T02:16:10.773Z,20.15
2022-07-29T02:18:40.858Z,20.13
2022-07-29T02:21:14.848Z,20.11
2022-07-29T02:23:50.443Z,20.06
2022-07-29T02:26:21.358Z,20.02
2022-07-29T02:28:51.537Z,19.97
2022-07-29T02:31:26.045Z,19.97
2022-07-29T02:33:54.902Z,19.95
2022-07-29T02:36:24.744Z,19.89
2022-07-29T02:38:52.551Z,19.87
2022-07-29T02:41:37.244Z,19.80
2022-07-29T02:44:11.570Z,19.78
2022-07-29T02:46:53.417Z,19.76
2022-07-29T02:49:47.912Z,19.74
2022-07-29T02:52:31.718Z,19.74
2022-07-29T02:55:09.851Z,19.73
2022-07-29T02:57:54.563Z,19.70
2022-07-29T03:00:28.738Z,19.69
2022-07-29T03:03:00.874Z,19.68
2022-07-29T03:05:28.949Z,19.67
2022-07-29T03:08:07.234Z,19.64
2022-07-29T03:10:35.332Z,19.61
2022-07-29T03:13:02.992Z,19.59
2022-07-29T03:15:31.032Z,19.60
2022-07-29T03:17:59.721Z,19.61
2022-07-29T03:20:27.466Z,19.64
2022-07-29T03:22:54.782Z,19.68
2022-07-29T03:25:22.756Z,19.73
2022-07-29T03:27:50.169Z,19.74
2022-07-29T03:30:21.982Z,19.80
2022-07-29T03:32:54.166Z,19.83
2022-07-29T03:35:23.793Z,19.84
2022-07-29T03:37:50.957Z,19.91
2022-07-29T03:40:36.328Z,19.92
2022-07-29T03:43:04.756Z,19.94
2022-07-29T03:45:33.159Z,19.93
2022-07-29T03:48:09.805Z,19.94
2022-07-29T03:50:37.653Z,19.92
2022-07-29T03:53:05.165Z,19.91
2022-07-29T03:55:41.345Z,19.93
2022-07-29T03:58:09.379Z,19.89
2022-07-29T04:00:38.753Z,19.88
2022-07-29T04:03:10.575Z,19.89
2022-07-29T04:05:39.228Z,19.86
2022-07-29T04:08:07.004Z,19.87
2022-07-29T04:10:34.359Z,19.86
2022-07-29T04:13:03.385Z,19.87
2022-07-29T04:15:30.888Z,19.90
2022-07-29T04:18:00.253Z,19.90
2022-07-29T04:20:27.762Z,19.96
2022-07-29T04:22:55.229Z,19.99
2022-07-29T04:25:22.270Z,20.08
2022-07-29T04:28:04.154Z,20.13
2022-07-29T04:30:32.864Z,20.23
2022-07-29T04:33:01.851Z,20.33
2022-07-29T04:35:37.992Z,20.45
2022-07-29T04:38:07.431Z,20.58
2022-07-29T04:40:42.547Z,20.66
2022-07-29T04:43:10.265Z,20.81
2022-07-29T04:45:39.754Z,20.93
2022-07-29T04:48:07.134Z,21.04
2022-07-29T04:50:34.446Z,21.13
2022-07-29T04:53:01.821Z,21.24
2022-07-29T04:55:29.265Z,21.32
2022-07-29T04:57:56.628Z,21.41
2022-07-29T05:00:28.057Z,21.52
2022-07-29T05:03:01.125Z,21.58
2022-07-29T05:05:28.341Z,21.65
2022-07-29T05:07:56.178Z,21.71
2022-07-29T05:10:23.934Z,21.78
2022-07-29T05:12:51.332Z,21.83
2022-07-29T05:15:18.825Z,21.91
2022-07-29T05:17:46.386Z,21.98
2022-07-29T05:20:13.569Z,22.09
2022-07-29T05:22:40.584Z,22.17
2022-07-29T05:25:10.082Z,22.25
2022-07-29T05:27:38.053Z,22.30
2022-07-29T05:30:06.168Z,22.40
2022-07-29T05:32:33.288Z,22.49
2022-07-29T05:35:00.436Z,22.57
2022-07-29T05:37:27.694Z,22.64
2022-07-29T05:39:57.418Z,22.75
2022-07-29T05:42:27.453Z,22.82
2022-07-29T05:44:54.703Z,22.90
2022-07-29T05:47:22.178Z,22.97
2022-07-29T05:49:50.069Z,23.05
2022-07-29T05:52:17.746Z,23.12
2022-07-29T05:54:45.132Z,23.17
2022-07-29T05:57:25.028Z,23.22
2022-07-29T05:59:52.945Z,23.25
2022-07-29T06:02:20.629Z,23.31
2022-07-29T06:04:47.843Z,23.34
2022-07-29T06:07:14.961Z,23.39
2022-07-29T06:09:42.242Z,23.42
2022-07-29T06:12:10.372Z,23.43
2022-07-29T06:14:38.874Z,23.46
2022-07-29T06:17:06.795Z,23.50
2022-07-29T06:19:37.124Z,23.53
2022-07-29T06:22:04.854Z,23.58
2022-07-29T06:24:31.977Z,23.70
2022-07-29T06:26:59.514Z,23.79
2022-07-29T06:29:26.674Z,23.88
2022-07-29T06:31:53.732Z,23.94
2022-07-29T06:34:21.063Z,24.08
2022-07-29T06:36:48.465Z,24.12
2022-07-29T06:39:17.078Z,24.22
2022-07-29T06:41:51.544Z,24.28
2022-07-29T06:44:20.158Z,24.35
2022-07-29T06:46:50.151Z,24.39
2022-07-29T06:49:17.567Z,24.43
2022-07-29T06:51:44.581Z,24.47
2022-07-29T06:54:11.806Z,24.46
2022-07-29T06:56:42.065Z,24.48
2022-07-29T06:59:11.278Z,24.46
2022-07-29T07:01:41.485Z,24.49
2022-07-29T07:04:09.756Z,24.47
2022-07-29T07:06:37.754Z,24.48
2022-07-29T07:09:05.609Z,24.49
2022-07-29T07:11:33.014Z,24.48
2022-07-29T07:14:14.423Z,24.50
2022-07-29T07:16:41.536Z,24.48
2022-07-29T07:19:08.786Z,24.49
2022-07-29T07:21:36.366Z,24.48
2022-07-29T07:24:03.892Z,24.50
2022-07-29T07:26:31.209Z,24.50
2022-07-29T07:29:01.262Z,24.50
2022-07-29T07:31:28.400Z,24.50
2022-07-29T07:33:55.893Z,24.50
2022-07-29T07:36:24.189Z,24.54
2022-07-29T07:38:51.502Z,24.57
2022-07-29T07:41:18.902Z,24.59
2022-07-29T07:43:46.092Z,24.65
2022-07-29T07:46:13.771Z,24.71
2022-07-29T07:48:41.158Z,24.75
2022-07-29T07:51:08.559Z,24.77
2022-07-29T07:53:36.098Z,24.82
2022-07-29T07:56:12.509Z,24.86
2022-07-29T07:58:40.243Z,24.89
2022-07-29T08:01:07.792Z,24.90
2022-07-29T08:03:35.503Z,24.93
2022-07-29T08:06:04.279Z,24.96
2022-07-29T08:08:31.550Z,25.00
2022-07-29T08:11:02.248Z,25.05
2022-07-29T08:13:33.072Z,25.09
2022-07-29T08:16:12.565Z,25.15
2022-07-29T08:18:42.141Z,25.22
2022-07-29T08:21:09.574Z,25.28
2022-07-29T08:23:46.880Z,25.32
2022-07-29T08:26:15.292Z,25.38
2022-07-29T08:28:51.187Z,25.42
2022-07-29T08:31:19.209Z,25.41
2022-07-29T08:33:46.841Z,25.47
2022-07-29T08:36:14.476Z,25.45
2022-07-29T08:38:41.721Z,25.47
2022-07-29T08:41:08.788Z,25.50
2022-07-29T08:43:38.653Z,25.51
2022-07-29T08:46:05.744Z,25.51
2022-07-29T08:48:33.628Z,25.53
2022-07-29T08:51:01.589Z,25.53
2022-07-29T08:53:30.491Z,25.53
2022-07-29T08:55:59.010Z,25.53
2022-07-29T08:58:28.041Z,25.55
2022-07-29T09:00:58.228Z,25.56
2022-07-29T09:03:31.335Z,25.55
2022-07-29T09:06:00.515Z,25.55
2022-07-29T09:08:28.536Z,25.58
2022-07-29T09:10:59.395Z,25.59
2022-07-29T09:13:27.228Z,25.62
2022-07-29T09:15:54.923Z,25.67
2022-07-29T09:18:37.405Z,25.72
2022-07-29T09:21:25.893Z,25.77
2022-07-29T09:24:11.230Z,25.87
2022-07-29T09:26:46.391Z,25.92
2022-07-29T09:29:17.388Z,26.05
2022-07-29T09:31:49.017Z,26.14
2022-07-29T09:34:22.762Z,26.19
2022-07-29T09:36:51.829Z,26.27
2022-07-29T09:39:36.918Z,26.36
2022-07-29T09:42:07.001Z,26.47
2022-07-29T09:44:47.635Z,26.61
2022-07-29T09:47:15.338Z,26.75
2022-07-29T09:50:01.401Z,26.89
2022-07-29T09:52:30.663Z,27.00
2022-07-29T09:55:09.134Z,27.09
2022-07-29T09:57:37.365Z,27.20
2022-07-29T10:00:09.060Z,27.29
2022-07-29T10:02:45.017Z,27.37
2022-07-29T10:05:36.056Z,27.50
2022-07-29T10:08:04.787Z,27.58
2022-07-29T10:10:35.340Z,27.72
2022-07-29T10:13:09.933Z,27.88
2022-07-29T10:15:46.332Z,28.04
2022-07-29T10:18:15.702Z,28.20
2022-07-29T10:20:42.874Z,28.36
2022-07-29T10:23:10.639Z,28.48
2022-07-29T10:25:38.027Z,28.62
2022-07-29T10:28:07.193Z,28.67
2022-07-29T10:30:34.976Z,28.85
2022-07-29T10:33:38.767Z,28.94
2022-07-29T10:36:20.333Z,29.00
2022-07-29T10:39:41.749Z,29.02
2022-07-29T10:42:33.333Z,29.12
2022-07-29T10:45:04.326Z,29.19
2022-07-29T10:47:32.407Z,29.29
2022-07-29T10:50:07.463Z,29.36
2022-07-29T10:52:55.305Z,29.43
2022-07-29T10:55:43.417Z,29.47
2022-07-29T10:58:19.820Z,29.51
2022-07-29T11:00:50.207Z,29.55
2022-07-29T11:03:52.335Z,29.62
2022-07-29T11:06:26.325Z,29.69
2022-07-29T11:09:34.789Z,29.81
2022-07-29T11:12:25.889Z,29.93
2022-07-29T11:15:02.618Z,30.07
2022-07-29T11:17:37.577Z,30.17
2022-07-29T11:20:33.896Z,30.30
2022-07-29T11:23:02.043Z,30.37
2022-07-29T11:25:50.711Z,30.46
2022-07-29T11:28:23.144Z,30.55
2022-07-29T11:30:54.859Z,30.62
2022-07-29T11:33:54.458Z,30.69
2022-07-29T11:36:28.183Z,30.80
2022-07-29T11:39:26.868Z,30.94
2022-07-29T11:42:28.523Z,31.12
2022-07-29T11:48:03.648Z,31.57
2022-07-29T11:50:36.932Z,31.76
2022-07-29T11:53:13.257Z,31.93
2022-07-29T11:55:50.772Z,32.06
2022-07-29T11:58:26.249Z,32.12
2022-07-29T12:00:55.496Z,32.14
2022-07-29T12:03:33.438Z,32.19
2022-07-29T12:06:14.019Z,32.13
2022-07-29T12:07:02.022Z,31.34
2022-07-29T12:08:44.322Z,32.03
2022-07-29T12:11:23.419Z,31.97
2022-07-29T12:13:54.713Z,31.87
2022-07-29T12:16:25.530Z,31.79
2022-07-29T12:18:58.762Z,31.65
2022-07-29T12:21:26.772Z,31.50
2022-07-29T12:24:04.829Z,31.32
2022-07-29T12:26:36.360Z,31.10
2022-07-29T12:29:04.505Z,30.91
2022-07-29T12:31:43.379Z,30.73
2022-07-29T12:34:15.039Z,30.60
2022-07-29T12:36:44.047Z,30.50
2022-07-29T12:39:13.384Z,30.42
2022-07-29T12:41:40.926Z,30.34
2022-07-29T12:44:08.103Z,30.31
2022-07-29T12:46:35.290Z,30.33
2022-07-29T12:49:04.532Z,30.40
2022-07-29T12:51:37.738Z,30.50
2022-07-29T12:54:06.600Z,30.67
2022-07-29T12:56:43.297Z,30.86
2022-07-29T12:59:20.472Z,31.09
2022-07-29T13:01:50.848Z,31.32
2022-07-29T13:04:37.490Z,31.51
2022-07-29T13:07:08.209Z,31.64
2022-07-29T13:09:48.834Z,31.78
2022-07-29T13:12:16.316Z,31.92
2022-07-29T13:14:48.933Z,32.04
2022-07-29T13:17:23.833Z,32.22
2022-07-29T13:20:10.257Z,32.40
2022-07-29T13:22:37.706Z,32.56
2022-07-29T13:25:07.715Z,32.71
2022-07-29T13:27:38.304Z,32.95
2022-07-29T13:30:09.387Z,33.25
2022-07-29T13:32:37.649Z,33.64
2022-07-29T13:35:08.958Z,34.07
2022-07-29T13:37:39.609Z,34.43
2022-07-29T13:40:10.323Z,34.73
2022-07-29T13:42:37.768Z,34.94
2022-07-29T13:45:07.550Z,35.14
2022-07-29T13:47:34.815Z,35.26
2022-07-29T13:50:02.983Z,35.38
2022-07-29T13:52:30.417Z,35.49
2022-07-29T13:54:57.594Z,35.71
2022-07-29T13:57:25.097Z,35.99
2022-07-29T13:59:54.382Z,36.18
2022-07-29T14:02:25.648Z,36.29
2022-07-29T14:04:56.607Z,36.25
2022-07-29T14:07:24.346Z,36.22
2022-07-29T14:09:52.137Z,36.26
2022-07-29T14:12:20.025Z,36.36
2022-07-29T14:14:47.522Z,36.39
2022-07-29T14:17:15.948Z,36.35
2022-07-29T14:19:43.826Z,36.26
2022-07-29T14:22:11.045Z,36.15
2022-07-29T14:24:39.177Z,36.03
2022-07-29T14:27:08.859Z,35.95
2022-07-29T14:29:39.055Z,35.84
2022-07-29T14:32:15.818Z,35.78
2022-07-29T14:34:43.521Z,35.69
2022-07-29T14:37:10.808Z,35.61
2022-07-29T14:39:43.579Z,35.53
2022-07-29T14:42:12.714Z,35.73
2022-07-29T14:44:42.571Z,36.22
2022-07-29T14:47:10.381Z,36.91
2022-07-29T14:49:38.242Z,37.70
2022-07-29T14:52:05.872Z,38.58
2022-07-29T14:54:33.477Z,39.42
2022-07-29T14:57:01.282Z,40.31
2022-07-29T14:59:28.694Z,41.19
2022-07-29T15:01:56.381Z,41.86
2022-07-29T15:04:24.052Z,42.36
2022-07-29T15:06:51.521Z,42.76
2022-07-29T15:09:18.999Z,43.19
2022-07-29T15:11:46.134Z,43.62
2022-07-29T15:14:13.169Z,43.99
2022-07-29T15:16:41.967Z,44.32
2022-07-29T15:19:11.565Z,44.62
2022-07-29T15:21:41.611Z,44.86
2022-07-29T15:24:17.474Z,45.11
2022-07-29T15:26:45.026Z,45.33
2022-07-29T15:29:12.291Z,45.42
2022-07-29T15:31:39.386Z,45.49
2022-07-29T15:34:07.735Z,45.68
2022-07-29T15:36:51.357Z,45.86
2022-07-29T15:39:21.985Z,46.10
2022-07-29T15:41:49.696Z,46.36
2022-07-29T15:44:16.832Z,46.56
2022-07-29T15:47:02.518Z,46.72
2022-07-29T15:49:47.887Z,46.87
2022-07-29T15:52:26.052Z,46.92
2022-07-29T15:54:55.620Z,46.83
2022-07-29T15:57:23.671Z,46.77
2022-07-29T15:59:51.317Z,46.68
2022-07-29T16:02:18.640Z,46.66
2022-07-29T16:04:45.842Z,46.64
2022-07-29T16:07:14.176Z,46.62
2022-07-29T16:09:42.801Z,46.52
2022-07-29T16:12:15.398Z,46.41
2022-07-29T16:14:44.363Z,46.27
2022-07-29T16:17:14.895Z,46.07
2022-07-29T16:19:44.092Z,45.89
2022-07-29T16:22:11.998Z,45.76
2022-07-29T16:24:39.527Z,45.64
2022-07-29T16:27:07.051Z,45.37
2022-07-29T16:29:34.303Z,45.06
2022-07-29T16:32:01.901Z,44.75
2022-07-29T16:34:29.769Z,44.50
2022-07-29T16:36:57.088Z,44.18
2022-07-29T16:39:24.265Z,43.85
2022-07-29T16:41:51.491Z,43.53
2022-07-29T16:44:18.634Z,43.32
2022-07-29T16:46:45.872Z,43.10
2022-07-29T16:49:19.090Z,42.94
2022-07-29T16:51:47.957Z,42.72
2022-07-29T16:54:15.391Z,42.47
2022-07-29T16:56:42.524Z,42.27
2022-07-29T16:59:09.627Z,42.12
2022-07-29T17:01:37.299Z,41.89
2022-07-29T17:04:07.185Z,41.76
2022-07-29T17:06:40.487Z,41.49
2022-07-29T17:09:09.949Z,41.11
2022-07-29T17:11:51.684Z,40.56
2022-07-29T17:14:26.898Z,39.80
2022-07-29T17:17:01.030Z,39.16
2022-07-29T17:19:35.471Z,38.73
2022-07-29T17:22:11.615Z,38.43
2022-07-29T17:24:41.090Z,38.21
2022-07-29T17:27:09.481Z,38.10
2022-07-29T17:29:37.019Z,38.02
2022-07-29T17:32:07.772Z,37.94
2022-07-29T17:34:41.112Z,37.71
2022-07-29T17:37:12.190Z,37.46
2022-07-29T17:39:41.726Z,37.25
2022-07-29T17:42:11.128Z,37.08
2022-07-29T17:44:38.817Z,36.91
2022-07-29T17:47:07.925Z,36.64
2022-07-29T17:49:44.293Z,36.25
2022-07-29T17:52:11.431Z,35.88
2022-07-29T17:54:38.543Z,35.48
2022-07-29T17:57:05.617Z,35.06
2022-07-29T17:59:32.859Z,34.63
2022-07-29T18:02:00.225Z,34.19
2022-07-29T18:04:28.914Z,33.78
2022-07-29T18:06:56.511Z,33.39
2022-07-29T18:09:23.909Z,33.01
2022-07-29T18:11:51.977Z,32.72
2022-07-29T18:14:19.200Z,32.42
2022-07-29T18:16:47.586Z,32.15
2022-07-29T18:19:14.778Z,31.84
2022-07-29T18:21:53.874Z,31.67
2022-07-29T18:24:27.459Z,31.38
2022-07-29T18:26:54.824Z,31.20
2022-07-29T18:29:22.214Z,31.00
2022-07-29T18:31:49.545Z,30.81
2022-07-29T18:34:17.244Z,30.64
2022-07-29T18:36:45.920Z,30.45
2022-07-29T18:39:20.998Z,30.30
2022-07-29T18:41:51.257Z,30.12
2022-07-29T18:44:21.691Z,29.95
2022-07-29T18:46:50.167Z,29.78
2022-07-29T18:49:17.807Z,29.59
2022-07-29T18:51:44.907Z,29.45
2022-07-29T18:54:13.428Z,29.24
2022-07-29T18:56:41.599Z,29.09
2022-07-29T18:59:08.833Z,29.01
2022-07-29T19:01:37.087Z,28.85
2022-07-29T19:04:05.493Z,28.72
2022-07-29T19:06:32.853Z,28.55
2022-07-29T19:09:00.521Z,28.40
2022-07-29T19:11:27.712Z,28.22
2022-07-29T19:13:55.155Z,28.04
2022-07-29T19:16:22.522Z,27.81
2022-07-29T19:18:49.638Z,27.70
2022-07-29T19:21:17.390Z,27.51
2022-07-29T19:24:01.845Z,27.31
2022-07-29T19:26:33.420Z,27.13
2022-07-29T19:29:00.488Z,26.99
2022-07-29T19:31:28.133Z,26.89
2022-07-29T19:33:55.422Z,26.76
2022-07-29T19:36:22.892Z,26.59
2022-07-29T19:38:50.027Z,26.48
2022-07-29T19:41:17.290Z,26.34
2022-07-29T19:43:51.993Z,26.23
2022-07-29T19:46:21.645Z,26.09
2022-07-29T19:48:49.389Z,26.01
2022-07-29T19:51:17.285Z,25.89
2022-07-29T19:53:44.454Z,25.81
2022-07-29T19:56:11.802Z,25.73
2022-07-29T19:58:40.703Z,25.67
2022-07-29T20:01:10.617Z,25.61
2022-07-29T20:03:39.998Z,25.59
2022-07-29T20:06:08.093Z,25.56
2022-07-29T20:08:35.490Z,25.55
2022-07-29T20:11:03.446Z,25.55
2022-07-29T20:13:32.984Z,25.53
2022-07-29T20:16:01.212Z,25.51
2022-07-29T20:18:28.484Z,25.47
2022-07-29T20:20:57.560Z,25.38
2022-07-29T20:23:24.986Z,25.39
2022-07-29T20:25:52.633Z,25.32
2022-07-29T20:28:28.526Z,25.32
2022-07-29T20:30:55.784Z,25.27
2022-07-29T20:33:22.929Z,25.20
2022-07-29T20:35:50.230Z,25.19
2022-07-29T20:38:18.473Z,25.16
2022-07-29T20:40:46.318Z,25.13
2022-07-29T20:43:13.623Z,25.10
2022-07-29T20:45:40.990Z,25.02
2022-07-29T20:48:08.575Z,25.05
2022-07-29T20:50:35.894Z,25.01
2022-07-29T20:53:03.415Z,24.98
2022-07-29T20:55:31.943Z,24.95
2022-07-29T20:57:59.475Z,24.94
2022-07-29T21:00:26.796Z,24.92
2022-07-29T21:02:54.302Z,24.92
2022-07-29T21:05:21.365Z,24.92
2022-07-29T21:07:48.539Z,24.90
2022-07-29T21:10:18.169Z,24.91
2022-07-29T21:12:49.270Z,24.87
2022-07-29T21:15:16.876Z,24.69
2022-07-29T21:17:47.234Z,24.55
2022-07-29T21:20:19.453Z,24.50
2022-07-29T21:22:46.789Z,24.38
2022-07-29T21:25:13.985Z,24.29
2022-07-29T21:27:59.921Z,24.21
2022-07-29T21:30:28.084Z,24.12
2022-07-29T21:32:55.543Z,24.07
2022-07-29T21:35:52.163Z,24.04
2022-07-29T21:38:09.957Z,24.01
2022-07-29T21:40:37.335Z,24.04
2022-07-29T21:43:05.010Z,24.03
2022-07-29T21:45:32.329Z,24.01
2022-07-29T21:47:59.684Z,24.00
2022-07-29T21:50:27.028Z,23.93
2022-07-29T21:52:54.385Z,23.82
2022-07-29T21:55:23.010Z,23.71
2022-07-29T21:57:56.621Z,23.59
2022-07-29T22:00:25.570Z,23.45
2022-07-29T22:02:56.009Z,23.39
2022-07-29T22:05:24.052Z,23.25
2022-07-29T22:07:55.568Z,23.14
2022-07-29T22:10:26.957Z,23.06
2022-07-29T22:12:56.494Z,22.95
2022-07-29T22:15:24.513Z,22.89
2022-07-29T22:17:52.327Z,22.81
2022-07-29T22:20:20.265Z,22.74
2022-07-29T22:22:48.208Z,22.69
2022-07-29T22:25:16.898Z,22.62
2022-07-29T22:27:44.241Z,22.55
2022-07-29T22:30:12.114Z,22.53
2022-07-29T22:32:39.442Z,22.54
2022-07-29T22:35:07.200Z,22.58
2022-07-29T22:37:34.377Z,22.61
2022-07-29T22:40:02.177Z,22.64
2022-07-29T22:42:31.733Z,22.69
2022-07-29T22:44:58.672Z,22.75
2022-07-29T22:47:46.679Z,22.83
2022-07-29T22:50:13.033Z,22.84
2022-07-29T22:52:40.337Z,22.83
2022-07-29T22:55:07.783Z,22.73
2022-07-29T22:57:34.869Z,22.61
2022-07-29T23:00:02.631Z,22.53
2022-07-29T23:02:29.894Z,22.34
2022-07-29T23:04:57.213Z,22.24
2022-07-29T23:07:24.629Z,22.03
2022-07-29T23:09:51.957Z,21.78
2022-07-29T23:12:19.048Z,21.47
2022-07-29T23:14:46.298Z,21.22
2022-07-29T23:17:13.627Z,21.09
2022-07-29T23:19:41.120Z,20.93
2022-07-29T23:22:08.481Z,20.88
2022-07-29T23:24:35.421Z,20.86
2022-07-29T23:27:02.850Z,20.83
2022-07-29T23:29:32.803Z,20.84
2022-07-29T23:32:03.581Z,20.83
2022-07-29T23:34:30.676Z,20.82
2022-07-29T23:36:57.846Z,20.78
2022-07-29T23:39:24.886Z,20.71
2022-07-29T23:41:52.628Z,20.66
2022-07-29T23:44:19.930Z,20.51
2022-07-29T23:46:46.990Z,20.47
2022-07-29T23:49:14.497Z,20.41
2022-07-29T23:51:41.589Z,20.40
2022-07-29T23:54:08.689Z,20.40
2022-07-29T23:56:35.915Z,20.35
2022-07-29T23:59:05.720Z,20.28
